createdAt,value
2024-01-16T00:00:56.824Z,3.08
2024-01-16T00:01:59.786Z,2.85
2024-01-16T00:03:05.896Z,3.08
2024-01-16T00:04:09.508Z,3.53
2024-01-16T00:05:14.396Z,2.95
2024-01-16T00:06:16.223Z,3.00
2024-01-16T00:07:20.439Z,3.10
2024-01-16T00:08:22.164Z,2.85
2024-01-16T00:09:27.932Z,2.60
2024-01-16T00:10:31.458Z,2.92
2024-01-16T00:11:34.759Z,3.33
2024-01-16T00:12:36.456Z,2.80
2024-01-16T00:13:39.797Z,2.90
2024-01-16T00:14:44.717Z,3.08
2024-01-16T00:15:46.523Z,3.10
2024-01-16T00:16:51.309Z,3.33
2024-01-16T00:17:54.744Z,3.40
2024-01-16T00:19:04.318Z,3.58
2024-01-16T00:20:07.342Z,3.00
2024-01-16T00:21:09.931Z,2.70
2024-01-16T00:22:15.166Z,2.70
2024-01-16T00:23:21.034Z,2.72
2024-01-16T00:24:26.880Z,2.67
2024-01-16T00:25:36.596Z,2.70
2024-01-16T00:26:55.589Z,2.90
2024-01-16T00:28:05.461Z,2.88
2024-01-16T00:29:07.189Z,3.00
2024-01-16T00:30:12.673Z,3.20
2024-01-16T00:31:15.839Z,2.53
2024-01-16T00:32:17.671Z,2.83
2024-01-16T00:33:30.253Z,2.38
2024-01-16T00:34:36.656Z,2.92
2024-01-16T00:35:41.157Z,3.25
2024-01-16T00:36:42.822Z,2.83
2024-01-16T00:37:51.754Z,3.10
2024-01-16T00:39:56.351Z,3.17
2024-01-16T00:40:59.496Z,3.03
2024-01-16T00:42:02.960Z,3.28
2024-01-16T00:43:11.131Z,3.08
2024-01-16T00:44:12.837Z,3.33
2024-01-16T00:45:24.606Z,3.35
2024-01-16T00:46:26.693Z,2.97
2024-01-16T00:47:29.458Z,3.58
2024-01-16T00:48:31.699Z,3.80
2024-01-16T00:49:35.599Z,3.67
2024-01-16T00:50:37.295Z,4.00
2024-01-16T00:51:41.482Z,3.67
2024-01-16T00:52:43.400Z,3.63
2024-01-16T00:53:46.555Z,3.63
2024-01-16T00:54:49.964Z,3.67
2024-01-16T00:55:58.485Z,3.75
2024-01-16T00:57:01.361Z,4.15
2024-01-16T00:58:03.032Z,4.45
2024-01-16T00:59:11.395Z,4.80
2024-01-16T01:00:15.015Z,4.88
2024-01-16T01:01:16.744Z,4.22
2024-01-16T01:02:20.528Z,4.50
2024-01-16T01:03:26.465Z,4.53
2024-01-16T01:04:28.313Z,4.22
2024-01-16T01:05:31.538Z,4.13
2024-01-16T01:06:36.342Z,4.10
2024-01-16T01:07:38.044Z,4.43
2024-01-16T01:08:44.600Z,3.92
2024-01-16T01:09:46.351Z,3.97
2024-01-16T01:10:49.580Z,4.13
2024-01-16T01:11:54.537Z,3.88
2024-01-16T01:12:56.408Z,4.47
2024-01-16T01:14:04.754Z,4.32
2024-01-16T01:15:07.002Z,4.43
2024-01-16T01:16:11.733Z,4.00
2024-01-16T01:17:15.828Z,4.00
2024-01-16T01:18:17.751Z,4.13
2024-01-16T01:19:22.361Z,4.25
2024-01-16T01:20:25.554Z,4.50
2024-01-16T01:21:28.058Z,4.32
2024-01-16T01:22:37.268Z,4.40
2024-01-16T01:23:41.436Z,4.07
2024-01-16T01:24:45.967Z,4.15
2024-01-16T01:25:47.633Z,4.20
2024-01-16T01:26:51.023Z,4.25
2024-01-16T01:27:56.083Z,3.67
2024-01-16T01:29:01.166Z,3.80
2024-01-16T01:30:06.093Z,3.97
2024-01-16T01:31:11.637Z,4.20
2024-01-16T01:32:14.679Z,4.45
2024-01-16T01:33:16.952Z,4.50
2024-01-16T01:34:24.861Z,4.32
2024-01-16T01:35:27.884Z,4.07
2024-01-16T01:36:34.847Z,4.85
2024-01-16T01:37:36.518Z,4.53
2024-01-16T01:38:39.527Z,4.18
2024-01-16T01:39:41.805Z,4.60
2024-01-16T01:40:46.089Z,4.85
2024-01-16T01:41:47.796Z,4.13
2024-01-16T01:42:51.114Z,4.28
2024-01-16T01:43:52.747Z,4.30
2024-01-16T01:44:55.852Z,4.90
2024-01-16T01:46:15.825Z,4.78
2024-01-16T01:47:17.608Z,4.82
2024-01-16T01:48:26.444Z,5.07
2024-01-16T01:50:35.570Z,4.22
2024-01-16T01:51:37.228Z,3.85
2024-01-16T01:52:42.086Z,4.78
2024-01-16T01:53:50.282Z,4.68
2024-01-16T01:54:57.873Z,5.10
2024-01-16T01:56:06.991Z,5.05
2024-01-16T01:57:11.279Z,5.32
2024-01-16T01:58:12.953Z,4.93
2024-01-16T01:59:20.910Z,4.80
2024-01-16T02:00:22.892Z,5.10
2024-01-16T02:01:26.932Z,4.88
2024-01-16T02:02:29.595Z,5.15
2024-01-16T02:03:51.234Z,4.78
2024-01-16T02:04:55.611Z,4.50
2024-01-16T02:05:57.632Z,5.20
2024-01-16T02:07:01.485Z,4.95
2024-01-16T02:08:04.887Z,5.20
2024-01-16T02:09:10.015Z,5.43
2024-01-16T02:10:11.778Z,5.55
2024-01-16T02:11:16.210Z,5.97
2024-01-16T02:12:21.839Z,6.78
2024-01-16T02:13:29.435Z,7.22
2024-01-16T02:14:34.487Z,6.95
2024-01-16T02:15:37.410Z,7.15
2024-01-16T02:16:45.155Z,7.53
2024-01-16T02:17:50.011Z,6.45
2024-01-16T02:18:55.122Z,6.20
2024-01-16T02:19:56.916Z,6.90
2024-01-16T02:21:05.743Z,7.75
2024-01-16T02:22:12.033Z,7.18
2024-01-16T02:23:17.112Z,6.63
2024-01-16T02:24:27.208Z,7.30
2024-01-16T02:25:30.800Z,6.55
2024-01-16T02:26:34.936Z,6.45
2024-01-16T02:27:36.685Z,6.38
2024-01-16T02:28:40.145Z,6.13
2024-01-16T02:29:47.723Z,5.97
2024-01-16T02:30:54.717Z,5.78
2024-01-16T02:31:57.093Z,6.20
2024-01-16T02:33:01.227Z,5.40
2024-01-16T02:34:06.580Z,5.45
2024-01-16T02:35:09.806Z,5.00
2024-01-16T02:36:11.510Z,5.10
2024-01-16T02:37:14.633Z,5.38
2024-01-16T02:41:02.648Z,4.43
2024-01-16T02:42:05.639Z,4.53
2024-01-16T02:43:07.570Z,4.35
2024-01-16T02:44:10.675Z,4.47
2024-01-16T02:45:15.941Z,4.57
2024-01-16T02:46:22.312Z,4.80
2024-01-16T02:47:30.634Z,4.50
2024-01-16T02:48:37.135Z,4.53
2024-01-16T02:49:41.269Z,4.50
2024-01-16T02:50:43.416Z,4.78
2024-01-16T02:51:46.338Z,5.25
2024-01-16T02:52:48.022Z,4.68
2024-01-16T02:53:51.666Z,4.57
2024-01-16T02:54:54.438Z,4.80
2024-01-16T02:56:04.384Z,4.90
2024-01-16T02:57:09.195Z,4.68
2024-01-16T02:58:11.237Z,4.55
2024-01-16T02:59:13.126Z,5.38
2024-01-16T03:00:16.062Z,5.30
2024-01-16T03:01:20.945Z,5.30
2024-01-16T03:02:25.565Z,4.85
2024-01-16T03:03:36.380Z,5.32
2024-01-16T03:04:42.272Z,4.97
2024-01-16T03:05:44.922Z,5.20
2024-01-16T03:06:46.712Z,4.88
2024-01-16T03:07:49.575Z,5.60
2024-01-16T03:08:52.371Z,4.80
2024-01-16T03:09:56.326Z,5.15
2024-01-16T03:11:01.212Z,5.20
2024-01-16T03:12:03.939Z,5.40
2024-01-16T03:13:06.266Z,4.95
2024-01-16T03:14:07.950Z,4.90
2024-01-16T03:15:15.922Z,4.97
2024-01-16T03:16:22.792Z,5.55
2024-01-16T03:17:26.005Z,4.60
2024-01-16T03:18:27.952Z,5.22
2024-01-16T03:19:31.961Z,5.40
2024-01-16T03:20:35.880Z,5.85
2024-01-16T03:21:37.750Z,5.88
2024-01-16T03:22:46.620Z,5.65
2024-01-16T03:24:17.487Z,6.15
2024-01-16T03:25:27.435Z,5.28
2024-01-16T03:26:31.658Z,6.05
2024-01-16T03:27:35.763Z,6.32
2024-01-16T03:28:39.401Z,5.82
2024-01-16T03:29:41.234Z,6.68
2024-01-16T03:30:43.534Z,6.28
2024-01-16T03:31:45.955Z,6.38
2024-01-16T03:32:49.262Z,5.93
2024-01-16T03:33:51.718Z,6.88
2024-01-16T03:34:54.653Z,6.28
2024-01-16T03:35:56.395Z,5.72
2024-01-16T03:37:01.172Z,5.75
2024-01-16T03:38:02.833Z,6.43
2024-01-16T03:39:06.808Z,6.47
2024-01-16T03:40:14.474Z,6.05
2024-01-16T03:41:16.451Z,6.75
2024-01-16T03:42:19.832Z,6.38
2024-01-16T03:43:21.565Z,6.25
2024-01-16T03:44:24.599Z,5.80
2024-01-16T03:45:29.451Z,5.97
2024-01-16T03:46:35.963Z,6.13
2024-01-16T03:47:38.445Z,5.75
2024-01-16T03:48:43.038Z,5.85
2024-01-16T03:49:47.618Z,6.15
2024-01-16T03:50:52.834Z,5.75
2024-01-16T03:51:55.936Z,6.55
2024-01-16T03:53:00.234Z,6.30
2024-01-16T03:54:05.846Z,6.05
2024-01-16T03:55:10.742Z,5.97
2024-01-16T03:56:15.651Z,5.72
2024-01-16T03:57:17.986Z,5.90
2024-01-16T03:58:21.375Z,6.07
2024-01-16T03:59:27.034Z,5.60
2024-01-16T04:00:29.803Z,5.80
2024-01-16T04:01:34.101Z,5.80
2024-01-16T04:02:39.639Z,6.00
2024-01-16T04:03:42.365Z,5.93
2024-01-16T04:04:47.569Z,5.55
2024-01-16T04:05:51.718Z,5.72
2024-01-16T04:06:54.747Z,5.95
2024-01-16T04:07:58.362Z,5.38
2024-01-16T04:09:02.010Z,5.75
2024-01-16T04:10:06.298Z,5.68
2024-01-16T04:11:14.959Z,5.82
2024-01-16T04:12:16.661Z,6.05
2024-01-16T04:13:21.933Z,6.25
2024-01-16T04:14:26.115Z,6.50
2024-01-16T04:15:27.796Z,6.07
2024-01-16T04:16:31.536Z,7.38
2024-01-16T04:17:34.604Z,7.05
2024-01-16T04:18:45.544Z,6.88
2024-01-16T04:19:47.336Z,7.63
2024-01-16T04:20:52.365Z,7.32
2024-01-16T04:21:54.780Z,8.57
2024-01-16T04:22:57.608Z,9.55
2024-01-16T04:24:05.485Z,9.52
2024-01-16T04:25:10.939Z,10.50
2024-01-16T04:26:12.554Z,9.27
2024-01-16T04:27:19.724Z,9.32
2024-01-16T04:28:24.668Z,8.27
2024-01-16T04:29:26.390Z,8.80
2024-01-16T04:30:37.030Z,8.50
2024-01-16T04:31:42.502Z,8.10
2024-01-16T04:32:46.110Z,9.35
2024-01-16T04:33:47.880Z,8.00
2024-01-16T04:34:59.855Z,7.93
2024-01-16T04:36:01.982Z,8.40
2024-01-16T04:37:05.732Z,7.75
2024-01-16T04:38:09.740Z,8.38
2024-01-16T04:39:11.593Z,8.48
2024-01-16T04:40:14.172Z,8.63
2024-01-16T04:41:23.430Z,8.35
2024-01-16T04:42:26.406Z,7.93
2024-01-16T04:43:28.042Z,8.05
2024-01-16T04:44:36.303Z,7.78
2024-01-16T04:45:40.188Z,7.85
2024-01-16T04:46:53.035Z,7.95
2024-01-16T04:47:56.194Z,8.30
2024-01-16T04:48:58.137Z,8.00
2024-01-16T04:50:01.562Z,7.85
2024-01-16T04:51:07.649Z,8.20
2024-01-16T04:52:13.188Z,8.43
2024-01-16T04:53:16.910Z,8.32
2024-01-16T04:54:21.526Z,8.48
2024-01-16T04:55:24.556Z,8.65
2024-01-16T04:56:26.286Z,8.07
2024-01-16T04:57:27.972Z,8.82
2024-01-16T04:58:31.073Z,8.35
2024-01-16T04:59:35.928Z,7.57
2024-01-16T05:00:37.737Z,7.68
2024-01-16T05:01:44.700Z,8.48
2024-01-16T05:02:46.313Z,8.55
2024-01-16T05:03:48.031Z,8.82
2024-01-16T05:04:57.251Z,8.02
2024-01-16T05:06:00.291Z,8.23
2024-01-16T05:07:02.200Z,8.27
2024-01-16T05:08:05.077Z,7.90
2024-01-16T05:09:10.749Z,7.88
2024-01-16T05:10:15.962Z,8.02
2024-01-16T05:11:22.831Z,7.97
2024-01-16T05:12:27.682Z,8.50
2024-01-16T05:13:31.129Z,8.27
2024-01-16T05:14:33.961Z,8.70
2024-01-16T05:16:54.851Z,8.30
2024-01-16T05:17:57.032Z,8.07
2024-01-16T05:19:02.205Z,8.05
2024-01-16T05:20:07.455Z,8.63
2024-01-16T05:21:10.214Z,8.02
2024-01-16T05:22:14.681Z,8.20
2024-01-16T05:23:21.269Z,8.50
2024-01-16T05:24:22.969Z,8.68
2024-01-16T05:25:26.690Z,8.93
2024-01-16T05:26:30.069Z,9.18
2024-01-16T05:27:31.711Z,9.20
2024-01-16T05:28:34.739Z,8.98
2024-01-16T05:29:44.308Z,8.90
2024-01-16T05:30:55.769Z,8.85
2024-01-16T05:32:00.806Z,7.85
2024-01-16T05:33:02.624Z,8.50
2024-01-16T05:34:11.062Z,8.55
2024-01-16T05:35:12.859Z,8.00
2024-01-16T05:36:20.040Z,7.70
2024-01-16T05:37:21.697Z,7.60
2024-01-16T05:38:24.610Z,8.15
2024-01-16T05:39:26.316Z,8.85
2024-01-16T05:40:31.092Z,8.40
2024-01-16T05:41:35.802Z,8.48
2024-01-16T05:42:41.205Z,7.72
2024-01-16T05:43:42.903Z,8.00
2024-01-16T05:44:49.911Z,7.53
2024-01-16T05:45:52.890Z,8.48
2024-01-16T05:46:56.004Z,9.38
2024-01-16T05:47:57.882Z,8.27
2024-01-16T05:49:02.909Z,8.35
2024-01-16T05:50:08.235Z,8.13
2024-01-16T05:51:11.369Z,8.25
2024-01-16T05:52:13.024Z,8.60
2024-01-16T05:53:16.637Z,8.02
2024-01-16T05:54:22.660Z,9.40
2024-01-16T05:55:25.718Z,8.82
2024-01-16T05:56:27.453Z,8.77
2024-01-16T05:57:35.671Z,9.13
2024-01-16T05:58:41.411Z,8.32
2024-01-16T05:59:43.077Z,10.10
2024-01-16T06:00:49.747Z,10.13
2024-01-16T06:01:54.516Z,9.82
2024-01-16T06:02:57.594Z,10.18
2024-01-16T06:04:02.050Z,9.55
2024-01-16T06:05:07.190Z,9.52
2024-01-16T06:06:10.027Z,8.95
2024-01-16T06:07:11.700Z,10.18
2024-01-16T06:08:14.661Z,10.25
2024-01-16T06:09:17.653Z,9.75
2024-01-16T06:10:21.857Z,10.30
2024-01-16T06:11:39.880Z,11.02
2024-01-16T06:12:41.912Z,10.15
2024-01-16T06:13:44.698Z,10.25
2024-01-16T06:14:46.389Z,10.23
2024-01-16T06:15:50.849Z,10.63
2024-01-16T06:17:02.733Z,11.32
2024-01-16T06:18:06.099Z,10.25
2024-01-16T06:19:09.981Z,10.05
2024-01-16T06:20:11.930Z,9.63
2024-01-16T06:21:14.516Z,9.48
2024-01-16T06:22:22.330Z,9.93
2024-01-16T06:23:24.866Z,9.48
2024-01-16T06:24:26.625Z,10.65
2024-01-16T06:25:29.796Z,10.68
2024-01-16T06:26:32.724Z,10.02
2024-01-16T06:27:35.838Z,9.77
2024-01-16T06:28:39.480Z,10.00
2024-01-16T06:29:41.710Z,9.70
2024-01-16T06:30:44.660Z,12.20
2024-01-16T06:31:50.662Z,11.32
2024-01-16T06:32:56.095Z,10.02
2024-01-16T06:34:00.816Z,10.57
2024-01-16T06:35:02.544Z,9.68
2024-01-16T06:36:05.936Z,10.02
2024-01-16T06:37:07.644Z,10.80
2024-01-16T06:38:17.111Z,9.57
2024-01-16T06:39:21.101Z,9.70
2024-01-16T06:40:22.856Z,10.23
2024-01-16T06:41:29.981Z,9.40
2024-01-16T06:42:33.354Z,9.50
2024-01-16T06:43:36.406Z,9.25
2024-01-16T06:44:39.465Z,9.88
2024-01-16T06:45:41.245Z,9.25
2024-01-16T06:46:42.933Z,9.77
2024-01-16T06:47:47.724Z,8.93
2024-01-16T06:48:52.188Z,8.95
2024-01-16T06:50:02.768Z,8.85
2024-01-16T06:51:06.288Z,8.63
2024-01-16T06:52:11.098Z,8.68
2024-01-16T06:53:17.356Z,8.38
2024-01-16T06:54:21.986Z,8.50
2024-01-16T06:55:25.873Z,9.10
2024-01-16T06:56:27.886Z,10.45
2024-01-16T06:57:31.734Z,9.98
2024-01-16T06:58:40.671Z,8.85
2024-01-16T06:59:42.633Z,8.77
2024-01-16T07:00:49.835Z,8.95
2024-01-16T07:01:52.535Z,8.75
2024-01-16T07:02:56.072Z,9.15
2024-01-16T07:03:58.071Z,8.32
2024-01-16T07:05:01.292Z,9.55
2024-01-16T07:06:04.512Z,8.45
2024-01-16T07:07:06.788Z,8.00
2024-01-16T07:08:09.649Z,8.68
2024-01-16T07:09:17.166Z,7.75
2024-01-16T07:10:23.997Z,7.55
2024-01-16T07:11:26.624Z,7.60
2024-01-16T07:12:34.328Z,7.95
2024-01-16T07:13:36.132Z,7.80
2024-01-16T07:14:41.964Z,8.13
2024-01-16T07:15:46.051Z,7.43
2024-01-16T07:16:49.621Z,7.97
2024-01-16T07:17:56.229Z,7.78
2024-01-16T07:19:00.632Z,7.63
2024-01-16T07:20:05.787Z,7.80
2024-01-16T07:21:22.103Z,6.70
2024-01-16T07:22:24.390Z,6.93
2024-01-16T07:23:26.561Z,7.18
2024-01-16T07:24:29.084Z,7.22
2024-01-16T07:25:35.363Z,7.10
2024-01-16T07:26:37.162Z,7.55
2024-01-16T07:27:40.441Z,7.13
2024-01-16T07:28:42.209Z,6.70
2024-01-16T07:29:44.435Z,6.75
2024-01-16T07:30:46.192Z,8.68
2024-01-16T07:31:52.223Z,7.57
2024-01-16T07:32:55.800Z,7.03
2024-01-16T07:33:57.574Z,7.22
2024-01-16T07:35:03.022Z,6.43
2024-01-16T07:36:10.983Z,6.72
2024-01-16T07:37:16.951Z,7.03
2024-01-16T07:38:19.454Z,6.10
2024-01-16T07:39:25.960Z,6.30
2024-01-16T07:40:30.900Z,6.10
2024-01-16T07:41:36.186Z,5.82
2024-01-16T07:42:41.202Z,6.20
2024-01-16T07:43:52.269Z,7.13
2024-01-16T07:44:54.441Z,6.85
2024-01-16T07:45:59.216Z,7.68
2024-01-16T07:47:01.121Z,5.63
2024-01-16T07:48:03.063Z,6.20
2024-01-16T07:49:06.941Z,5.75
2024-01-16T07:50:09.838Z,5.60
2024-01-16T07:51:16.917Z,6.38
2024-01-16T07:52:27.067Z,5.53
2024-01-16T07:53:29.571Z,7.30
2024-01-16T07:54:32.144Z,7.20
2024-01-16T07:55:36.957Z,7.05
2024-01-16T07:56:40.855Z,7.95
2024-01-16T07:57:45.484Z,6.97
2024-01-16T07:58:50.439Z,9.48
2024-01-16T07:59:52.264Z,7.70
2024-01-16T08:00:54.424Z,6.57
2024-01-16T08:01:56.176Z,5.85
2024-01-16T08:03:00.960Z,5.97
2024-01-16T08:04:06.352Z,5.40
2024-01-16T08:05:10.688Z,5.72
2024-01-16T08:06:12.492Z,5.13
2024-01-16T08:07:15.502Z,6.53
2024-01-16T08:08:19.240Z,5.68
2024-01-16T08:09:21.441Z,5.82
2024-01-16T08:10:24.609Z,5.43
2024-01-16T08:11:27.556Z,5.82
2024-01-16T08:12:30.258Z,5.47
2024-01-16T08:13:36.996Z,5.88
2024-01-16T08:14:43.606Z,5.45
2024-01-16T08:15:46.456Z,5.97
2024-01-16T08:16:49.148Z,5.90
2024-01-16T08:17:50.936Z,5.28
2024-01-16T08:18:53.087Z,5.57
2024-01-16T08:19:56.050Z,5.32
2024-01-16T08:20:58.030Z,5.82
2024-01-16T08:22:00.590Z,6.10
2024-01-16T08:23:02.377Z,6.05
2024-01-16T08:24:05.319Z,6.97
2024-01-16T08:25:07.505Z,6.60
2024-01-16T08:26:11.696Z,5.57
2024-01-16T08:27:17.482Z,6.30
2024-01-16T08:28:26.519Z,6.15
2024-01-16T08:29:42.332Z,6.47
2024-01-16T08:30:44.839Z,5.68
2024-01-16T08:31:51.640Z,5.07
2024-01-16T08:32:55.084Z,5.50
2024-01-16T08:33:59.789Z,5.78
2024-01-16T08:35:05.642Z,4.93
2024-01-16T08:36:07.609Z,4.95
2024-01-16T08:37:11.677Z,5.80
2024-01-16T08:38:14.211Z,4.95
2024-01-16T08:39:21.336Z,4.72
2024-01-16T08:40:23.101Z,4.57
2024-01-16T08:41:26.496Z,4.47
2024-01-16T08:42:28.386Z,4.32
2024-01-16T08:43:32.696Z,4.53
2024-01-16T08:44:36.898Z,4.20
2024-01-16T08:45:39.951Z,3.90
2024-01-16T08:46:41.564Z,3.70
2024-01-16T08:47:49.725Z,4.22
2024-01-16T08:48:51.670Z,4.88
2024-01-16T08:49:57.131Z,4.47
2024-01-16T08:51:05.457Z,4.35
2024-01-16T08:52:10.573Z,4.40
2024-01-16T08:53:15.987Z,4.03
2024-01-16T08:54:25.140Z,3.88
2024-01-16T08:55:30.487Z,3.70
2024-01-16T08:56:32.135Z,4.00
2024-01-16T08:57:34.651Z,3.95
2024-01-16T08:58:37.071Z,3.70
2024-01-16T08:59:39.521Z,3.58
2024-01-16T09:00:41.483Z,4.00
2024-01-16T09:01:43.401Z,3.80
2024-01-16T09:02:46.406Z,3.97
2024-01-16T09:03:49.482Z,3.22
2024-01-16T09:04:52.898Z,3.80
2024-01-16T09:06:05.299Z,3.60
2024-01-16T09:07:07.605Z,3.17
2024-01-16T09:08:13.992Z,3.30
2024-01-16T09:09:25.127Z,2.88
2024-01-16T09:10:26.841Z,3.05
2024-01-16T09:11:30.943Z,3.05
2024-01-16T09:12:35.653Z,2.90
2024-01-16T09:13:37.910Z,2.90
2024-01-16T09:14:42.950Z,3.20
2024-01-16T09:15:45.542Z,2.85
2024-01-16T09:16:47.217Z,2.42
2024-01-16T09:17:51.373Z,2.85
2024-01-16T09:18:56.717Z,3.13
2024-01-16T09:20:01.634Z,2.95
2024-01-16T09:21:05.621Z,3.10
2024-01-16T09:22:07.974Z,2.75
2024-01-16T09:23:16.136Z,2.67
2024-01-16T09:24:29.086Z,3.20
2024-01-16T09:25:36.533Z,2.50
2024-01-16T09:26:40.008Z,2.53
2024-01-16T09:27:42.743Z,2.33
2024-01-16T09:28:47.063Z,2.30
2024-01-16T09:29:50.882Z,2.40
2024-01-16T09:30:52.647Z,2.40
2024-01-16T09:31:56.534Z,2.70
2024-01-16T09:32:59.361Z,2.22
2024-01-16T09:34:01.274Z,2.15
2024-01-16T09:35:09.477Z,2.45
2024-01-16T09:36:11.190Z,2.67
2024-01-16T09:37:20.771Z,2.75
2024-01-16T09:38:23.642Z,2.72
2024-01-16T09:39:29.692Z,2.78
2024-01-16T09:40:36.542Z,2.80
2024-01-16T09:41:40.956Z,3.38
2024-01-16T09:42:42.729Z,2.60
2024-01-16T09:43:45.856Z,2.80
2024-01-16T09:44:50.913Z,2.63
2024-01-16T09:45:55.511Z,9.15
2024-01-16T09:46:59.454Z,6.60
2024-01-16T09:48:04.604Z,5.28
2024-01-16T09:49:06.776Z,4.20
2024-01-16T09:50:09.638Z,3.65
2024-01-16T09:51:18.328Z,4.55
2024-01-16T09:52:21.200Z,4.68
2024-01-16T09:53:23.002Z,4.55
2024-01-16T09:54:28.341Z,7.07
2024-01-16T09:55:31.274Z,5.45
2024-01-16T09:56:35.366Z,4.28
2024-01-16T09:57:44.086Z,7.30
2024-01-16T09:58:52.240Z,6.15
2024-01-16T09:59:54.633Z,4.85
2024-01-16T10:00:59.999Z,3.95
2024-01-16T10:02:06.394Z,3.70
2024-01-16T10:03:14.418Z,4.00
2024-01-16T10:04:17.546Z,3.55
2024-01-16T10:05:26.126Z,3.03
2024-01-16T10:06:32.233Z,3.33
2024-01-16T10:07:35.737Z,3.40
2024-01-16T10:08:40.562Z,3.22
2024-01-16T10:09:46.460Z,3.25
2024-01-16T10:10:51.852Z,3.05
2024-01-16T10:11:54.569Z,2.88
2024-01-16T10:12:59.769Z,2.95
2024-01-16T10:14:05.539Z,3.13
2024-01-16T10:15:09.522Z,3.13
2024-01-16T10:16:11.374Z,2.90
2024-01-16T10:17:17.464Z,3.05
2024-01-16T10:18:36.913Z,2.60
2024-01-16T10:19:52.202Z,2.70
2024-01-16T10:20:57.596Z,2.45
2024-01-16T10:22:06.266Z,2.25
2024-01-16T10:23:09.354Z,2.58
2024-01-16T10:24:17.025Z,2.88
2024-01-16T10:25:22.299Z,2.72
2024-01-16T10:26:24.608Z,2.10
2024-01-16T10:27:31.575Z,2.75
2024-01-16T10:28:35.458Z,2.83
2024-01-16T10:29:47.312Z,2.50
2024-01-16T10:31:04.534Z,3.22
2024-01-16T10:32:14.645Z,2.83
2024-01-16T10:33:17.672Z,2.50
2024-01-16T10:34:24.364Z,2.55
2024-01-16T10:35:26.354Z,2.80
2024-01-16T10:36:28.041Z,2.30
2024-01-16T10:37:42.275Z,2.45
2024-01-16T10:38:46.166Z,3.22
2024-01-16T10:39:51.812Z,3.22
2024-01-16T10:41:14.412Z,2.80
2024-01-16T10:42:21.170Z,2.85
2024-01-16T10:43:24.248Z,3.58
2024-01-16T10:44:26.077Z,3.03
2024-01-16T10:45:29.787Z,2.75
2024-01-16T10:46:31.633Z,2.70
2024-01-16T10:47:38.139Z,2.90
2024-01-16T10:48:46.069Z,3.05
2024-01-16T10:49:49.208Z,3.20
2024-01-16T10:50:54.534Z,2.78
2024-01-16T10:51:56.366Z,4.72
2024-01-16T10:53:01.356Z,4.35
2024-01-16T10:54:12.081Z,3.80
2024-01-16T10:55:24.282Z,4.15
2024-01-16T10:56:30.658Z,3.80
2024-01-16T10:57:41.530Z,3.50
2024-01-16T10:58:45.473Z,3.03
2024-01-16T10:59:59.608Z,3.20
2024-01-16T11:01:06.768Z,3.03
2024-01-16T11:02:14.462Z,2.80
2024-01-16T11:03:35.973Z,2.90
2024-01-16T11:04:39.412Z,2.88
2024-01-16T11:05:41.497Z,2.80
2024-01-16T11:06:46.883Z,3.00
2024-01-16T11:07:50.968Z,2.72
2024-01-16T11:08:54.610Z,2.85
2024-01-16T11:09:57.527Z,2.63
2024-01-16T11:11:09.400Z,2.97
2024-01-16T11:12:16.630Z,3.15
2024-01-16T11:13:20.990Z,3.50
2024-01-16T11:14:26.414Z,3.40
2024-01-16T11:15:34.791Z,3.22
2024-01-16T11:17:41.114Z,3.20
2024-01-16T11:18:43.219Z,3.40
2024-01-16T11:20:06.972Z,3.40
2024-01-16T11:21:17.986Z,2.95
2024-01-16T11:22:24.175Z,5.95
2024-01-16T11:23:26.409Z,5.30
2024-01-16T11:24:29.264Z,5.07
2024-01-16T11:25:35.569Z,4.78
2024-01-16T11:26:41.313Z,4.72
2024-01-16T11:27:45.294Z,3.83
2024-01-16T11:28:47.155Z,3.45
2024-01-16T11:29:51.663Z,3.40
2024-01-16T11:30:54.303Z,3.70
2024-01-16T11:32:13.692Z,3.10
2024-01-16T11:33:53.835Z,3.75
2024-01-16T11:34:59.538Z,3.47
2024-01-16T11:36:02.892Z,3.45
2024-01-16T11:37:10.379Z,3.20
2024-01-16T11:38:22.599Z,4.40
2024-01-16T11:39:26.562Z,3.72
2024-01-16T11:40:34.634Z,3.67
2024-01-16T11:41:57.103Z,4.07
2024-01-16T11:42:59.814Z,3.42
2024-01-16T11:44:01.845Z,3.75
2024-01-16T11:45:09.156Z,3.67
2024-01-16T11:46:10.847Z,3.25
2024-01-16T11:47:24.755Z,3.58
2024-01-16T11:48:29.479Z,3.35
2024-01-16T11:49:36.965Z,3.00
2024-01-16T11:50:41.438Z,2.90
2024-01-16T11:51:45.271Z,3.20
2024-01-16T11:52:47.222Z,3.05
2024-01-16T11:53:50.618Z,3.33
2024-01-16T11:54:52.612Z,3.92
2024-01-16T11:56:34.306Z,4.47
2024-01-16T11:58:11.252Z,6.30
2024-01-16T11:59:29.375Z,4.15
2024-01-16T12:00:35.734Z,4.68
2024-01-16T12:01:47.046Z,4.30
2024-01-16T12:03:00.006Z,4.10
2024-01-16T12:04:09.204Z,4.90
2024-01-16T12:05:14.678Z,4.88
2024-01-16T12:06:18.124Z,4.82
2024-01-16T12:07:25.382Z,4.32
2024-01-16T12:08:27.889Z,4.18
2024-01-16T12:09:33.816Z,3.90
2024-01-16T12:10:48.013Z,3.47
2024-01-16T12:12:02.624Z,3.22
2024-01-16T12:13:05.915Z,3.10
2024-01-16T12:14:10.313Z,2.97
2024-01-16T12:15:23.307Z,2.72
2024-01-16T12:16:26.053Z,3.10
2024-01-16T12:17:30.367Z,2.67
2024-01-16T12:18:40.479Z,2.63
2024-01-16T12:19:48.060Z,2.60
2024-01-16T12:20:51.955Z,2.72
2024-01-16T12:21:59.421Z,2.75
2024-01-16T12:23:13.038Z,3.40
2024-01-16T12:24:18.806Z,3.28
2024-01-16T12:25:25.235Z,4.03
2024-01-16T12:26:49.019Z,3.13
2024-01-16T12:28:05.083Z,3.20
2024-01-16T12:29:07.203Z,3.97
2024-01-16T12:30:10.679Z,4.28
2024-01-16T12:31:21.740Z,5.22
2024-01-16T12:32:24.168Z,4.70
2024-01-16T12:33:26.029Z,4.25
2024-01-16T12:34:29.663Z,3.50
2024-01-16T12:35:32.142Z,3.53
2024-01-16T12:36:35.499Z,2.78
2024-01-16T12:37:37.222Z,3.20
2024-01-16T12:38:41.298Z,3.42
2024-01-16T12:39:45.904Z,3.90
2024-01-16T12:40:52.539Z,3.50
2024-01-16T12:41:55.398Z,4.50
2024-01-16T12:42:57.134Z,4.68
2024-01-16T12:44:04.965Z,3.72
2024-01-16T12:45:14.340Z,3.95
2024-01-16T12:46:16.046Z,2.80
2024-01-16T12:47:20.534Z,3.08
2024-01-16T12:48:29.711Z,3.60
2024-01-16T12:49:31.745Z,3.05
2024-01-16T12:50:37.095Z,2.50
2024-01-16T12:51:40.556Z,3.00
2024-01-16T12:52:44.671Z,2.53
2024-01-16T12:53:48.080Z,2.60
2024-01-16T12:55:02.339Z,2.40
2024-01-16T12:56:05.601Z,2.50
2024-01-16T12:57:07.437Z,2.38
2024-01-16T12:58:16.694Z,2.05
2024-01-16T12:59:19.811Z,2.30
2024-01-16T13:00:24.456Z,2.30
2024-01-16T13:01:38.743Z,2.22
2024-01-16T13:02:45.093Z,2.75
2024-01-16T13:03:51.790Z,2.50
2024-01-16T13:05:05.668Z,2.78
2024-01-16T13:06:07.604Z,2.58
2024-01-16T13:07:11.997Z,2.38
2024-01-16T13:08:21.827Z,2.40
2024-01-16T13:09:24.306Z,2.60
2024-01-16T13:10:26.386Z,2.80
2024-01-16T13:11:38.636Z,2.65
2024-01-16T13:12:49.583Z,2.55
2024-01-16T13:14:05.283Z,2.58
2024-01-16T13:15:10.282Z,2.20
2024-01-16T13:16:12.554Z,2.40
2024-01-16T13:17:16.019Z,2.08
2024-01-16T13:18:30.574Z,2.60
2024-01-16T13:19:35.975Z,2.55
2024-01-16T13:20:38.000Z,3.00
2024-01-16T13:21:40.896Z,3.25
2024-01-16T13:22:45.924Z,3.13
2024-01-16T13:23:50.925Z,2.67
2024-01-16T13:24:58.280Z,2.90
2024-01-16T13:26:11.308Z,2.75
2024-01-16T13:27:15.262Z,2.72
2024-01-16T13:28:23.987Z,2.47
2024-01-16T13:29:27.389Z,2.75
2024-01-16T13:30:40.373Z,2.90
2024-01-16T13:31:50.497Z,2.80
2024-01-16T13:32:52.564Z,2.85
2024-01-16T13:33:57.907Z,2.75
2024-01-16T13:35:01.662Z,2.97
2024-01-16T13:36:05.827Z,3.30
2024-01-16T13:37:16.098Z,2.78
2024-01-16T13:38:21.114Z,2.60
2024-01-16T13:39:22.779Z,2.58
2024-01-16T13:40:25.803Z,2.70
2024-01-16T13:41:30.605Z,3.42
2024-01-16T13:42:33.367Z,3.20
2024-01-16T13:43:36.056Z,2.95
2024-01-16T13:44:37.733Z,3.30
2024-01-16T13:45:42.510Z,3.03
2024-01-16T13:46:57.814Z,3.15
2024-01-16T13:48:09.722Z,2.72
2024-01-16T13:49:11.719Z,2.80
2024-01-16T13:50:14.468Z,3.08
2024-01-16T13:51:16.991Z,3.20
2024-01-16T13:52:21.293Z,2.67
2024-01-16T13:53:26.011Z,2.55
2024-01-16T13:54:30.310Z,2.85
2024-01-16T13:55:37.017Z,2.90
2024-01-16T13:56:57.268Z,3.63
2024-01-16T13:58:05.415Z,5.10
2024-01-16T13:59:07.075Z,7.10
2024-01-16T14:00:16.345Z,16.15
2024-01-16T14:01:18.889Z,8.25
2024-01-16T14:02:24.460Z,5.63
2024-01-16T14:03:28.390Z,7.85
2024-01-16T14:04:32.121Z,6.28
2024-01-16T14:05:35.736Z,6.50
2024-01-16T14:06:55.824Z,6.80
2024-01-16T14:07:59.713Z,7.30
2024-01-16T14:09:02.858Z,6.68
2024-01-16T14:10:11.435Z,6.13
2024-01-16T14:11:13.094Z,5.93
2024-01-16T14:12:16.195Z,7.25
2024-01-16T14:13:24.443Z,4.53
2024-01-16T14:14:26.268Z,3.45
2024-01-16T14:15:29.439Z,3.20
2024-01-16T14:16:41.708Z,3.47
2024-01-16T14:17:56.059Z,3.60
2024-01-16T14:18:59.721Z,3.92
2024-01-16T14:20:01.672Z,3.65
2024-01-16T14:21:05.865Z,3.28
2024-01-16T14:22:09.426Z,3.63
2024-01-16T14:23:15.248Z,3.75
2024-01-16T14:24:20.719Z,3.60
2024-01-16T14:25:26.044Z,4.00
2024-01-16T14:26:30.782Z,4.22
2024-01-16T14:27:32.514Z,4.60
2024-01-16T14:28:35.679Z,4.30
2024-01-16T14:29:39.479Z,4.80
2024-01-16T14:30:44.635Z,3.95
2024-01-16T14:31:51.203Z,4.43
2024-01-16T14:32:54.625Z,4.43
2024-01-16T14:33:56.671Z,4.00